| time (UTC) | temp C | wind direction | speed KPH | gust KPH | rain 1hr cm | rain 24hr cm | rain mn cm | humidity % | barometer mb |
| 20260507210100 | 23 | 52 | 9.7 | 19.3 | 0.00 | 0.00 | 0.00 | 60 | 1010.7 |
| 20260507204608 | 23 | 46 | 11.3 | 19.3 | 0.00 | 0.00 | 0.00 | 60 | 1010.8 |
| 20260507203102 | 23 | 57 | 11.3 | 25.7 | 0.00 | 0.00 | 0.00 | 60 | 1010.9 |
| 20260507201600 | 24 | 5 | 9.7 | 22.5 | 0.00 | 0.00 | 0.00 | 59 | 1010.8 |
| 20260507200058 | 24 | 31 | 12.9 | 24.1 | 0.00 | 0.00 | 0.00 | 59 | 1010.8 |
| 20260507194633 | 23 | 78 | 6.4 | 19.3 | 0.00 | 0.00 | 0.00 | 58 | 1010.9 |
| 20260507194504 | 23 | 48 | 8.0 | 19.3 | 0.00 | 0.00 | 0.00 | 58 | 1010.9 |
| 20260507193055 | 23 | 55 | 3.2 | 11.3 | 0.00 | 0.00 | 0.00 | 59 | 1011.0 |
| 20260507191552 | 23 | 31 | 1.6 | 16.1 | 0.00 | 0.00 | 0.00 | 60 | 1011.2 |
| 20260507190048 | 22 | 288 | 3.2 | 14.5 | 0.00 | 0.00 | 0.00 | 61 | 1011.4 |
| 20260507184545 | 22 | 332 | 1.6 | 8.0 | 0.00 | 0.00 | 0.00 | 62 | 1011.6 |
| 20260507183041 | 21 | 47 | 3.2 | 11.3 | 0.00 | 0.00 | 0.00 | 63 | 1011.7 |
| 20260507181538 | 21 | 114 | 3.2 | 12.9 | 0.00 | 0.00 | 0.00 | 64 | 1011.8 |
| 20260507180037 | 20 | 44 | 4.8 | 11.3 | 0.00 | 0.00 | 0.00 | 65 | 1012.0 |
| 20260507174541 | 20 | 41 | 1.6 | 9.7 | 0.00 | 0.00 | 0.00 | 67 | 1012.2 |
| 20260507173036 | 20 | 30 | 4.8 | 12.9 | 0.00 | 0.00 | 0.00 | 69 | 1012.2 |
| 20260507171526 | 18 | 104 | 0.0 | 8.0 | 0.00 | 0.00 | 0.00 | 71 | 1012.3 |
| 20260507170022 | 18 | 86 | 4.8 | 11.3 | 0.00 | 0.00 | 0.00 | 74 | 1012.5 |
| 20260507164519 | 18 | 107 | 3.2 | 9.7 | 0.00 | 0.00 | 0.00 | 76 | 1012.6 |
| 20260507163015 | 17 | 121 | 0.0 | 11.3 | 0.00 | 0.00 | 0.00 | 79 | 1012.8 |
| 20260507161512 | 16 | 56 | 1.6 | 8.0 | 0.00 | 0.00 | 0.00 | 80 | 1012.8 |
| 20260507160013 | 16 | 69 | 3.2 | 9.7 | 0.00 | 0.00 | 0.00 | 81 | 1012.9 |
| 20260507154506 | 15 | 61 | 1.6 | 6.4 | 0.00 | 0.00 | 0.00 | 82 | 1013.0 |
| 20260507153006 | 15 | 83 | 1.6 | 6.4 | 0.00 | 0.00 | 0.00 | 83 | 1012.8 |
| 20260507151503 | 15 | 122 | 1.6 | 8.0 | 0.00 | 0.00 | 0.00 | 84 | 1012.8 |
| 20260507150100 | 14 | 134 | 1.6 | 6.4 | 0.00 | 0.00 | 0.00 | 85 | 1012.7 |
| 20260507144603 | 14 | 177 | 0.0 | 0.0 | 0.00 | 0.00 | 0.00 | 85 | 1012.7 |
| 20260507143111 | 13 | 178 | 0.0 | 0.0 | 0.00 | 0.00 | 0.00 | 87 | 1012.7 |
| 20260507141559 | 13 | 178 | 0.0 | 0.0 | 0.00 | 0.00 | 0.00 | 90 | 1012.6 |
| 20260507140100 | 12 | 178 | 0.0 | 0.0 | 0.00 | 0.00 | 0.00 | 90 | 1012.5 |
| 20260507134559 | 11 | 178 | 0.0 | 0.0 | 0.00 | 0.00 | 0.00 | 91 | 1012.5 |
| 20260507133106 | 11 | 178 | 0.0 | 6.4 | 0.00 | 0.00 | 0.00 | 91 | 1012.4 |
| 20260507131612 | 11 | 177 | 0.0 | 4.8 | 0.00 | 0.00 | 0.00 | 91 | 1012.5 |
| 20260507130056 | 11 | 177 | 0.0 | 0.0 | 0.00 | 0.00 | 0.00 | 90 | 1012.4 |
| 20260507124555 | 11 | 177 | 0.0 | 0.0 | 0.00 | 0.00 | 0.00 | 90 | 1012.2 |
| 20260507123055 | 11 | 177 | 0.0 | 0.0 | 0.00 | 0.00 | 0.00 | 90 | 1012.1 |
| 20260507121553 | 11 | 177 | 0.0 | 0.0 | 0.00 | 0.00 | 0.00 | 90 | 1012.1 |
| 20260507120052 | 11 | 177 | 0.0 | 0.0 | 0.00 | 0.00 | 0.00 | 90 | 1012.1 |
| 20260507114551 | 11 | 177 | 0.0 | 0.0 | 0.00 | 0.00 | 0.00 | 89 | 1012.1 |
| 20260507113050 | 11 | 177 | 0.0 | 0.0 | 0.00 | 0.00 | 0.00 | 89 | 1012.1 |
| 20260507111549 | 11 | 177 | 0.0 | 0.0 | 0.00 | 0.00 | 0.00 | 88 | 1012.1 |
| 20260507110046 | 12 | 177 | 0.0 | 0.0 | 0.00 | 0.00 | 0.00 | 88 | 1012.1 |
| 20260507104545 | 12 | 177 | 0.0 | 0.0 | 0.00 | 0.00 | 0.00 | 88 | 1012.2 |
| 20260507103044 | 12 | 177 | 0.0 | 0.0 | 0.00 | 0.00 | 0.00 | 88 | 1012.3 |
| 20260507101544 | 12 | 177 | 0.0 | 0.0 | 0.00 | 0.00 | 0.00 | 88 | 1012.4 |
| 20260507100045 | 12 | 177 | 0.0 | 0.0 | 0.00 | 0.00 | 0.00 | 88 | 1012.4 |
| 20260507094538 | 12 | 168 | 0.0 | 0.0 | 0.00 | 0.00 | 0.00 | 87 | 1012.5 |
| 20260507093043 | 12 | 166 | 0.0 | 0.0 | 0.00 | 0.00 | 0.00 | 87 | 1012.6 |
| 20260507091535 | 12 | 166 | 0.0 | 0.0 | 0.00 | 0.00 | 0.00 | 87 | 1012.7 |
| 20260507090033 | 12 | 166 | 0.0 | 0.0 | 0.00 | 0.00 | 0.00 | 87 | 1012.8 |
| 20260507084530 | 13 | 166 | 0.0 | 0.0 | 0.00 | 0.00 | 0.00 | 86 | 1013.1 |
| 20260507083029 | 13 | 166 | 0.0 | 0.0 | 0.00 | 0.00 | 0.00 | 86 | 1013.3 |
| 20260507081527 | 13 | 166 | 0.0 | 0.0 | 0.00 | 0.00 | 0.00 | 86 | 1013.3 |
| 20260507080034 | 13 | 166 | 0.0 | 0.0 | 0.00 | 0.00 | 0.00 | 85 | 1013.4 |
| 20260507074525 | 13 | 165 | 0.0 | 0.0 | 0.00 | 0.00 | 0.00 | 85 | 1013.3 |
| 20260507073021 | 14 | 163 | 0.0 | 0.0 | 0.00 | 0.00 | 0.00 | 85 | 1013.4 |
| 20260507071548 | 15 | 163 | 1.6 | 6.4 | 0.00 | 0.00 | 0.00 | 84 | 1013.5 |
| 20260507070015 | 15 | 113 | 0.0 | 0.0 | 0.00 | 0.00 | 0.00 | 84 | 1013.5 |
| 20260507064516 | 15 | 113 | 0.0 | 4.8 | 0.00 | 0.00 | 0.00 | 83 | 1013.7 |
| 20260507063015 | 15 | 120 | 0.0 | 6.4 | 0.00 | 0.00 | 0.00 | 83 | 1013.8 |
| 20260507061517 | 15 | 96 | 0.0 | 0.0 | 0.00 | 0.00 | 0.00 | 82 | 1013.6 |
| 20260507060014 | 15 | 97 | 0.0 | 0.0 | 0.00 | 0.00 | 0.00 | 81 | 1013.7 |
| 20260507054514 | 16 | 97 | 0.0 | 0.0 | 0.00 | 0.00 | 0.00 | 80 | 1013.6 |
| 20260507053014 | 16 | 96 | 0.0 | 0.0 | 0.00 | 0.00 | 0.00 | 80 | 1013.6 |
| 20260507051526 | 16 | 97 | 0.0 | 0.0 | 0.00 | 0.00 | 0.00 | 80 | 1013.6 |
| 20260507050013 | 16 | 96 | 0.0 | 0.0 | 0.00 | 0.00 | 0.00 | 79 | 1013.6 |
| 20260507044512 | 16 | 98 | 0.0 | 4.8 | 0.00 | 0.00 | 0.00 | 78 | 1013.6 |
| 20260507043012 | 16 | 78 | 1.6 | 8.0 | 0.00 | 0.00 | 0.00 | 77 | 1013.4 |
| 20260507041511 | 16 | 78 | 3.2 | 8.0 | 0.00 | 0.00 | 0.00 | 76 | 1013.3 |
| 20260507040009 | 17 | 78 | 0.0 | 6.4 | 0.00 | 0.00 | 0.00 | 74 | 1013.3 |
| 20260507034521 | 17 | 94 | 1.6 | 8.0 | 0.00 | 0.00 | 0.00 | 73 | 1013.1 |
| 20260507033015 | 17 | 107 | 4.8 | 11.3 | 0.00 | 0.00 | 0.00 | 70 | 1013.0 |
| 20260507031508 | 17 | 121 | 4.8 | 11.3 | 0.00 | 0.00 | 0.00 | 71 | 1012.8 |
| 20260507030008 | 17 | 87 | 3.2 | 9.7 | 0.00 | 0.00 | 0.00 | 71 | 1012.8 |
| 20260507024507 | 18 | 86 | 3.2 | 11.3 | 0.00 | 0.00 | 0.00 | 70 | 1012.5 |
| 20260507023016 | 18 | 85 | 6.4 | 14.5 | 0.00 | 0.00 | 0.00 | 69 | 1012.5 |
| 20260507021507 | 18 | 59 | 4.8 | 14.5 | 0.00 | 0.00 | 0.00 | 67 | 1012.4 |
| 20260507020007 | 19 | 90 | 8.0 | 17.7 | 0.00 | 0.00 | 0.00 | 66 | 1012.3 |
| 20260507014511 | 20 | 52 | 8.0 | 16.1 | 0.00 | 0.00 | 0.00 | 64 | 1012.2 |
| 20260507013005 | 20 | 88 | 8.0 | 16.1 | 0.00 | 0.00 | 0.00 | 62 | 1012.2 |
| 20260507011506 | 20 | 85 | 8.0 | 17.7 | 0.00 | 0.00 | 0.00 | 62 | 1012.1 |
| 20260507010004 | 20 | 77 | 9.7 | 17.7 | 0.00 | 0.00 | 0.00 | 60 | 1012.1 |
| 20260507004504 | 21 | 116 | 8.0 | 19.3 | 0.00 | 0.00 | 0.00 | 60 | 1012.0 |
| 20260507003004 | 20 | 109 | 8.0 | 17.7 | 0.00 | 0.00 | 0.00 | 60 | 1012.0 |
| 20260507001502 | 21 | 102 | 12.9 | 20.9 | 0.00 | 0.00 | 0.00 | 60 | 1011.8 |
| 20260507000002 | 21 | 112 | 8.0 | 14.5 | 0.00 | 0.00 | 0.00 | 60 | 1011.7 |
| 20260506234501 | 21 | 121 | 9.7 | 20.9 | 0.00 | 0.00 | 0.00 | 60 | 1011.6 |
| 20260506233001 | 21 | 121 | 9.7 | 20.9 | 0.00 | 0.00 | 0.00 | 59 | 1011.6 |
| 20260506231603 | 21 | 101 | 9.7 | 20.9 | 0.00 | 0.00 | 0.00 | 58 | 1011.6 |
| 20260506231501 | 21 | 88 | 11.3 | 25.7 | 0.00 | 0.00 | 0.00 | 58 | 1011.6 |
| 20260506230104 | 22 | 108 | 9.7 | 19.3 | 0.00 | 0.00 | 0.00 | 57 | 1011.6 |
| 20260506224559 | 22 | 104 | 11.3 | 17.7 | 0.00 | 0.00 | 0.00 | 56 | 1011.7 |
| 20260506223110 | 22 | 121 | 9.7 | 16.1 | 0.00 | 0.00 | 0.00 | 56 | 1011.8 |
| 20260506221557 | 22 | 138 | 6.4 | 17.7 | 0.00 | 0.00 | 0.00 | 55 | 1011.9 |
| 20260506220056 | 22 | 78 | 9.7 | 20.9 | 0.00 | 0.00 | 0.00 | 56 | 1011.9 |
| 20260506214603 | 23 | 69 | 9.7 | 20.9 | 0.00 | 0.00 | 0.00 | 56 | 1012.1 |
| 20260506213054 | 23 | 66 | 11.3 | 17.7 | 0.00 | 0.00 | 0.00 | 54 | 1012.2 |
| 20260506211602 | 23 | 105 | 12.9 | 22.5 | 0.00 | 0.00 | 0.00 | 54 | 1012.1 |